sensor_id;sensor_type;location;lat;lon;timestamp;pressure;altitude;pressure_sealevel;temperature;humidity
74346;BME280;62776;50.518;6.732;2024-02-21T00:00:07;97260.03;;;6.59;100.00
74346;BME280;62776;50.518;6.732;2024-02-21T00:02:53;97266.94;;;6.62;100.00
74346;BME280;62776;50.518;6.732;2024-02-21T00:05:39;97250.63;;;6.66;100.00
74346;BME280;62776;50.518;6.732;2024-02-21T00:08:28;97246.34;;;6.68;100.00
74346;BME280;62776;50.518;6.732;2024-02-21T00:11:18;97242.09;;;6.70;100.00
74346;BME280;62776;50.518;6.732;2024-02-21T00:14:04;97239.53;;;6.71;100.00
74346;BME280;62776;50.518;6.732;2024-02-21T00:16:50;97230.06;;;6.72;100.00
74346;BME280;62776;50.518;6.732;2024-02-21T00:19:37;97219.78;;;6.75;100.00
74346;BME280;62776;50.518;6.732;2024-02-21T00:22:23;97227.53;;;6.75;100.00
74346;BME280;62776;50.518;6.732;2024-02-21T00:25:12;97220.59;;;6.72;100.00
74346;BME280;62776;50.518;6.732;2024-02-21T00:27:58;97227.53;;;6.75;100.00
74346;BME280;62776;50.518;6.732;2024-02-21T00:30:45;97237.00;;;6.76;100.00
74346;BME280;62776;50.518;6.732;2024-02-21T00:33:31;97218.97;;;6.77;100.00
74346;BME280;62776;50.518;6.732;2024-02-21T00:36:17;97200.06;;;6.80;100.00
74346;BME280;62776;50.518;6.732;2024-02-21T00:39:03;97201.75;;;6.79;100.00
74346;BME280;62776;50.518;6.732;2024-02-21T00:41:51;97205.16;;;6.77;100.00
74346;BME280;62776;50.518;6.732;2024-02-21T00:44:37;97208.63;;;6.77;100.00
74346;BME280;62776;50.518;6.732;2024-02-21T00:47:23;97201.75;;;6.79;100.00
74346;BME280;62776;50.518;6.732;2024-02-21T00:50:09;97215.56;;;6.81;100.00
74346;BME280;62776;50.518;6.732;2024-02-21T00:52:56;97212.19;;;6.85;100.00
74346;BME280;62776;50.518;6.732;2024-02-21T00:55:42;97219.94;;;6.87;100.00
74346;BME280;62776;50.518;6.732;2024-02-21T00:58:29;97217.41;;;6.88;100.00
74346;BME280;62776;50.518;6.732;2024-02-21T01:01:22;97218.28;;;6.89;100.00
74346;BME280;62776;50.518;6.732;2024-02-21T01:04:09;97221.81;;;6.95;100.00
74346;BME280;62776;50.518;6.732;2024-02-21T01:06:55;97205.50;;;6.99;100.00
74346;BME280;62776;50.518;6.732;2024-02-21T01:09:41;97209.81;;;7.00;100.00
74346;BME280;62776;50.518;6.732;2024-02-21T01:12:27;97201.22;;;7.00;100.00
74346;BME280;62776;50.518;6.732;2024-02-21T01:15:14;97191.69;;;6.97;100.00
74346;BME280;62776;50.518;6.732;2024-02-21T01:18:01;97188.25;;;6.97;100.00
74346;BME280;62776;50.518;6.732;2024-02-21T01:20:47;97175.31;;;6.97;100.00
74346;BME280;62776;50.518;6.732;2024-02-21T01:23:39;97170.06;;;6.89;100.00
74346;BME280;62776;50.518;6.732;2024-02-21T01:26:26;97170.91;;;6.88;100.00
74346;BME280;62776;50.518;6.732;2024-02-21T01:29:12;97163.09;;;6.84;100.00
74346;BME280;62776;50.518;6.732;2024-02-21T01:31:58;97158.72;;;6.81;100.00
74346;BME280;62776;50.518;6.732;2024-02-21T01:34:46;97144.91;;;6.79;100.00
74346;BME280;62776;50.518;6.732;2024-02-21T01:37:33;97159.53;;;6.79;100.00
74346;BME280;62776;50.518;6.732;2024-02-21T01:40:19;97162.16;;;6.82;100.00
74346;BME280;62776;50.518;6.732;2024-02-21T01:43:16;97155.16;;;6.72;100.00
74346;BME280;62776;50.518;6.732;2024-02-21T01:46:05;97156.97;;;6.79;100.00
74346;BME280;62776;50.518;6.732;2024-02-21T01:48:51;97149.16;;;6.76;100.00
74346;BME280;62776;50.518;6.732;2024-02-21T01:51:37;97149.16;;;6.74;100.00
74346;BME280;62776;50.518;6.732;2024-02-21T01:54:25;97125.81;;;6.67;100.00
74346;BME280;62776;50.518;6.732;2024-02-21T01:57:15;97113.78;;;6.67;100.00
74346;BME280;62776;50.518;6.732;2024-02-21T02:00:07;97093.84;;;6.59;100.00
74346;BME280;62776;50.518;6.732;2024-02-21T02:02:55;97099.00;;;6.59;100.00
74346;BME280;62776;50.518;6.732;2024-02-21T02:05:29;97099.00;;;6.59;100.00
74346;BME280;62776;50.518;6.732;2024-02-21T02:08:24;97099.72;;;6.48;100.00
74346;BME280;62776;50.518;6.732;2024-02-21T02:11:14;97085.97;;;6.49;100.00
74346;BME280;62776;50.518;6.732;2024-02-21T02:14:01;97085.09;;;6.47;100.00
74346;BME280;62776;50.518;6.732;2024-02-21T02:16:47;97086.78;;;6.45;100.00
74346;BME280;62776;50.518;6.732;2024-02-21T02:19:39;97083.13;;;6.31;100.00
74346;BME280;62776;50.518;6.732;2024-02-21T02:22:29;97084.84;;;6.31;100.00
74346;BME280;62776;50.518;6.732;2024-02-21T02:25:19;97083.03;;;6.25;100.00
74346;BME280;62776;50.518;6.732;2024-02-21T02:28:11;97095.00;;;6.20;100.00
74346;BME280;62776;50.518;6.732;2024-02-21T02:30:57;97112.16;;;6.18;100.00
74346;BME280;62776;50.518;6.732;2024-02-21T02:33:44;97112.22;;;6.21;100.00
74346;BME280;62776;50.518;6.732;2024-02-21T02:36:32;97122.53;;;6.20;100.00
74346;BME280;62776;50.518;6.732;2024-02-21T02:39:19;97105.34;;;6.22;100.00
74346;BME280;62776;50.518;6.732;2024-02-21T02:42:12;97108.75;;;6.18;100.00
74346;BME280;62776;50.518;6.732;2024-02-21T02:44:58;97107.97;;;6.23;100.00
74346;BME280;62776;50.518;6.732;2024-02-21T02:47:47;97114.78;;;6.21;100.00
74346;BME280;62776;50.518;6.732;2024-02-21T02:50:34;97113.19;;;6.28;100.00
74346;BME280;62776;50.518;6.732;2024-02-21T02:53:20;97120.97;;;6.31;100.00
74346;BME280;62776;50.518;6.732;2024-02-21T02:56:13;97113.28;;;6.34;100.00
74346;BME280;62776;50.518;6.732;2024-02-21T02:59:00;97109.78;;;6.29;100.00
74346;BME280;62776;50.518;6.732;2024-02-21T03:01:46;97096.94;;;6.35;100.00
74346;BME280;62776;50.518;6.732;2024-02-21T03:04:39;97089.28;;;6.39;100.00
74346;BME280;62776;50.518;6.732;2024-02-21T03:07:26;97088.34;;;6.37;100.00
74346;BME280;62776;50.518;6.732;2024-02-21T03:10:13;97099.50;;;6.35;100.00
74346;BME280;62776;50.518;6.732;2024-02-21T03:13:00;97083.19;;;6.37;100.00
74346;BME280;62776;50.518;6.732;2024-02-21T03:15:46;97076.28;;;6.33;100.00
74346;BME280;62776;50.518;6.732;2024-02-21T03:18:33;97071.06;;;6.30;100.00
74346;BME280;62776;50.518;6.732;2024-02-21T03:21:19;97068.47;;;6.30;100.00
74346;BME280;62776;50.518;6.732;2024-02-21T03:24:18;97070.09;;;6.22;100.00
74346;BME280;62776;50.518;6.732;2024-02-21T03:27:07;97051.91;;;6.16;100.00
74346;BME280;62776;50.518;6.732;2024-02-21T03:29:55;97041.53;;;6.13;100.00
74346;BME280;62776;50.518;6.732;2024-02-21T03:32:41;97030.38;;;6.14;100.00
74346;BME280;62776;50.518;6.732;2024-02-21T03:35:28;97018.31;;;6.12;100.00
74346;BME280;62776;50.518;6.732;2024-02-21T03:38:16;97018.25;;;6.09;100.00
74346;BME280;62776;50.518;6.732;2024-02-21T03:41:05;97017.38;;;6.07;100.00
74346;BME280;62776;50.518;6.732;2024-02-21T03:43:52;97013.88;;;6.03;100.00
74346;BME280;62776;50.518;6.732;2024-02-21T03:46:39;97012.09;;;5.99;100.00
74346;BME280;62776;50.518;6.732;2024-02-21T03:49:27;97013.84;;;6.00;100.00
74346;BME280;62776;50.518;6.732;2024-02-21T03:52:13;97018.16;;;6.03;100.00
74346;BME280;62776;50.518;6.732;2024-02-21T03:55:00;97019.97;;;6.07;100.00
74346;BME280;62776;50.518;6.732;2024-02-21T03:57:47;97019.13;;;6.09;100.00
74346;BME280;62776;50.518;6.732;2024-02-21T04:00:34;97008.81;;;6.09;100.00
74346;BME280;62776;50.518;6.732;2024-02-21T04:03:21;96996.75;;;6.08;100.00
74346;BME280;62776;50.518;6.732;2024-02-21T04:06:09;96995.88;;;6.06;100.00
74346;BME280;62776;50.518;6.732;2024-02-21T04:08:56;96986.41;;;6.07;100.00
74346;BME280;62776;50.518;6.732;2024-02-21T04:11:43;96977.72;;;6.02;100.00
74346;BME280;62776;50.518;6.732;2024-02-21T04:14:30;96970.75;;;5.96;100.00
74346;BME280;62776;50.518;6.732;2024-02-21T04:17:16;96984.53;;;5.95;100.00
74346;BME280;62776;50.518;6.732;2024-02-21T04:20:06;96988.75;;;5.90;100.00
74346;BME280;62776;50.518;6.732;2024-02-21T04:22:56;96981.03;;;5.91;100.00
74346;BME280;62776;50.518;6.732;2024-02-21T04:25:44;96971.59;;;5.93;100.00
74346;BME280;62776;50.518;6.732;2024-02-21T04:28:30;96982.72;;;5.91;100.00
74346;BME280;62776;50.518;6.732;2024-02-21T04:31:16;96976.75;;;5.93;100.00
74346;BME280;62776;50.518;6.732;2024-02-21T04:34:03;96987.13;;;5.97;100.00
74346;BME280;62776;50.518;6.732;2024-02-21T04:36:49;96980.28;;;5.99;100.00
74346;BME280;62776;50.518;6.732;2024-02-21T04:39:35;96970.03;;;6.03;100.00
74346;BME280;62776;50.518;6.732;2024-02-21T04:42:22;96976.09;;;6.08;100.00
74346;BME280;62776;50.518;6.732;2024-02-21T04:45:09;96978.72;;;6.11;100.00
74346;BME280;62776;50.518;6.732;2024-02-21T04:47:55;96971.06;;;6.17;100.00
74346;BME280;62776;50.518;6.732;2024-02-21T04:50:42;96983.09;;;6.15;100.00
74346;BME280;62776;50.518;6.732;2024-02-21T04:53:28;96973.69;;;6.20;100.00
74346;BME280;62776;50.518;6.732;2024-02-21T04:56:14;96978.91;;;6.23;100.00
74346;BME280;62776;50.518;6.732;2024-02-21T04:59:01;96980.66;;;6.27;100.00
74346;BME280;62776;50.518;6.732;2024-02-21T05:01:49;96982.31;;;6.24;100.00
74346;BME280;62776;50.518;6.732;2024-02-21T05:04:37;96981.50;;;6.23;100.00
74346;BME280;62776;50.518;6.732;2024-02-21T05:07:24;96986.72;;;6.29;100.00
74346;BME280;62776;50.518;6.732;2024-02-21T05:10:10;96982.41;;;6.28;100.00
74346;BME280;62776;50.518;6.732;2024-02-21T05:12:58;96984.13;;;6.28;100.00
74346;BME280;62776;50.518;6.732;2024-02-21T05:15:44;96979.00;;;6.31;100.00
74346;BME280;62776;50.518;6.732;2024-02-21T05:18:30;96975.59;;;6.33;100.00
74346;BME280;62776;50.518;6.732;2024-02-21T05:21:17;96973.94;;;6.38;100.00
74346;BME280;62776;50.518;6.732;2024-02-21T05:24:05;96964.44;;;6.37;100.00
74346;BME280;62776;50.518;6.732;2024-02-21T05:26:53;96968.72;;;6.35;100.00
74346;BME280;62776;50.518;6.732;2024-02-21T05:29:41;96950.69;;;6.37;100.00
74346;BME280;62776;50.518;6.732;2024-02-21T05:32:28;96949.84;;;6.41;100.00
74346;BME280;62776;50.518;6.732;2024-02-21T05:35:15;96946.41;;;6.39;100.00
74346;BME280;62776;50.518;6.732;2024-02-21T05:38:01;96952.41;;;6.36;100.00
74346;BME280;62776;50.518;6.732;2024-02-21T05:40:52;96936.91;;;6.36;100.00
74346;BME280;62776;50.518;6.732;2024-02-21T05:43:41;96942.91;;;6.34;100.00
74346;BME280;62776;50.518;6.732;2024-02-21T05:46:27;96940.31;;;6.35;100.00
74346;BME280;62776;50.518;6.732;2024-02-21T05:49:16;96932.63;;;6.37;100.00
74346;BME280;62776;50.518;6.732;2024-02-21T05:52:04;96936.00;;;6.31;100.00
74346;BME280;62776;50.518;6.732;2024-02-21T05:54:51;96934.28;;;6.35;100.00
74346;BME280;62776;50.518;6.732;2024-02-21T05:57:40;96923.91;;;6.32;100.00
74346;BME280;62776;50.518;6.732;2024-02-21T06:00:26;96928.28;;;6.34;100.00
74346;BME280;62776;50.518;6.732;2024-02-21T06:03:12;96933.41;;;6.31;100.00
74346;BME280;62776;50.518;6.732;2024-02-21T06:06:01;96923.03;;;6.28;100.00
74346;BME280;62776;50.518;6.732;2024-02-21T06:08:48;96917.88;;;6.28;100.00
74346;BME280;62776;50.518;6.732;2024-02-21T06:11:37;96916.97;;;6.23;100.00
74346;BME280;62776;50.518;6.732;2024-02-21T06:14:24;96906.66;;;6.26;100.00
74346;BME280;62776;50.518;6.732;2024-02-21T06:17:10;96898.81;;;6.17;100.00
74346;BME280;62776;50.518;6.732;2024-02-21T06:19:58;96915.16;;;6.18;100.00
74346;BME280;62776;50.518;6.732;2024-02-21T06:22:44;96909.97;;;6.15;100.00
74346;BME280;62776;50.518;6.732;2024-02-21T06:25:30;96924.53;;;6.11;100.00
74346;BME280;62776;50.518;6.732;2024-02-21T06:28:17;96925.34;;;6.07;100.00
74346;BME280;62776;50.518;6.732;2024-02-21T06:31:03;96920.16;;;6.04;100.00
74346;BME280;62776;50.518;6.732;2024-02-21T06:33:50;96922.75;;;6.07;100.00
74346;BME280;62776;50.518;6.732;2024-02-21T06:36:36;96931.41;;;6.09;100.00
74346;BME280;62776;50.518;6.732;2024-02-21T06:39:23;96910.75;;;6.09;100.00
74346;BME280;62776;50.518;6.732;2024-02-21T06:42:11;96917.59;;;6.07;100.00
74346;BME280;62776;50.518;6.732;2024-02-21T06:45:03;96909.84;;;6.07;100.00
74346;BME280;62776;50.518;6.732;2024-02-21T06:47:51;96906.44;;;6.07;100.00
74346;BME280;62776;50.518;6.732;2024-02-21T06:50:37;96900.44;;;6.11;100.00
74346;BME280;62776;50.518;6.732;2024-02-21T06:53:23;96904.72;;;6.10;100.00
74346;BME280;62776;50.518;6.732;2024-02-21T06:56:12;96900.34;;;6.03;100.00
74346;BME280;62776;50.518;6.732;2024-02-21T06:59:01;96899.53;;;6.07;100.00
74346;BME280;62776;50.518;6.732;2024-02-21T07:01:53;96904.69;;;6.06;100.00
74346;BME280;62776;50.518;6.732;2024-02-21T07:04:39;96898.72;;;6.10;100.00
74346;BME280;62776;50.518;6.732;2024-02-21T07:07:25;96895.28;;;6.11;100.00
74346;BME280;62776;50.518;6.732;2024-02-21T07:10:12;96897.00;;;6.10;100.00
74346;BME280;62776;50.518;6.732;2024-02-21T07:12:59;96890.16;;;6.14;100.00
74346;BME280;62776;50.518;6.732;2024-02-21T07:15:46;96887.63;;;6.15;100.00
74346;BME280;62776;50.518;6.732;2024-02-21T07:18:35;96886.78;;;6.18;100.00
74346;BME280;62776;50.518;6.732;2024-02-21T07:21:22;96879.00;;;6.16;100.00
74346;BME280;62776;50.518;6.732;2024-02-21T07:24:08;96884.22;;;6.21;100.00
74346;BME280;62776;50.518;6.732;2024-02-21T07:26:55;96886.81;;;6.22;100.00
74346;BME280;62776;50.518;6.732;2024-02-21T07:29:43;96889.41;;;6.24;100.00
74346;BME280;62776;50.518;6.732;2024-02-21T07:32:33;96882.56;;;6.26;100.00
74346;BME280;62776;50.518;6.732;2024-02-21T07:35:19;96886.91;;;6.28;100.00
74346;BME280;62776;50.518;6.732;2024-02-21T07:38:06;96888.66;;;6.31;100.00
74346;BME280;62776;50.518;6.732;2024-02-21T07:40:53;96888.66;;;6.32;100.00
74346;BME280;62776;50.518;6.732;2024-02-21T07:43:45;96888.69;;;6.35;100.00
74346;BME280;62776;50.518;6.732;2024-02-21T07:46:31;96891.31;;;6.37;100.00
74346;BME280;62776;50.518;6.732;2024-02-21T07:49:19;96883.56;;;6.37;100.00
74346;BME280;62776;50.518;6.732;2024-02-21T07:52:06;96885.31;;;6.39;100.00
74346;BME280;62776;50.518;6.732;2024-02-21T07:54:54;96884.47;;;6.43;100.00
74346;BME280;62776;50.518;6.732;2024-02-21T07:57:40;96871.56;;;6.43;100.00
74346;BME280;62776;50.518;6.732;2024-02-21T08:00:26;96873.41;;;6.53;100.00
74346;BME280;62776;50.518;6.732;2024-02-21T08:03:14;96873.44;;;6.60;100.00
74346;BME280;62776;50.518;6.732;2024-02-21T08:06:02;96870.03;;;6.61;100.00
74346;BME280;62776;50.518;6.732;2024-02-21T08:08:49;96866.59;;;6.62;100.00
74346;BME280;62776;50.518;6.732;2024-02-21T08:11:35;96852.00;;;6.64;100.00
74346;BME280;62776;50.518;6.732;2024-02-21T08:14:22;96845.19;;;6.70;100.00
74346;BME280;62776;50.518;6.732;2024-02-21T08:17:10;96832.25;;;6.72;100.00
74346;BME280;62776;50.518;6.732;2024-02-21T08:19:58;96836.59;;;6.73;100.00
74346;BME280;62776;50.518;6.732;2024-02-21T08:22:45;96829.72;;;6.79;100.00
74346;BME280;62776;50.518;6.732;2024-02-21T08:25:31;96829.81;;;6.88;100.00
74346;BME280;62776;50.518;6.732;2024-02-21T08:28:19;96823.88;;;6.97;100.00
74346;BME280;62776;50.518;6.732;2024-02-21T08:31:08;96816.09;;;6.95;100.00
74346;BME280;62776;50.518;6.732;2024-02-21T08:33:54;96801.50;;;7.02;100.00
74346;BME280;62776;50.518;6.732;2024-02-21T08:36:42;96804.91;;;6.98;100.00
74346;BME280;62776;50.518;6.732;2024-02-21T08:39:31;96781.66;;;6.99;100.00
74346;BME280;62776;50.518;6.732;2024-02-21T08:42:17;96781.66;;;7.01;100.00
74346;BME280;62776;50.518;6.732;2024-02-21T08:45:05;96783.41;;;7.02;100.00
74346;BME280;62776;50.518;6.732;2024-02-21T08:47:51;96779.09;;;7.01;100.00
74346;BME280;62776;50.518;6.732;2024-02-21T08:50:40;96786.88;;;7.04;100.00
74346;BME280;62776;50.518;6.732;2024-02-21T08:53:28;96776.56;;;7.05;100.00
74346;BME280;62776;50.518;6.732;2024-02-21T08:56:15;96763.66;;;7.08;100.00
74346;BME280;62776;50.518;6.732;2024-02-21T08:59:03;96759.38;;;7.13;100.00
74346;BME280;62776;50.518;6.732;2024-02-21T09:01:50;96762.00;;;7.23;100.00
74346;BME280;62776;50.518;6.732;2024-02-21T09:04:37;96750.84;;;7.30;100.00
74346;BME280;62776;50.518;6.732;2024-02-21T09:07:23;96745.72;;;7.37;100.00
74346;BME280;62776;50.518;6.732;2024-02-21T09:10:14;96723.31;;;7.42;100.00
74346;BME280;62776;50.518;6.732;2024-02-21T09:13:00;96716.44;;;7.44;100.00
74346;BME280;62776;50.518;6.732;2024-02-21T09:15:50;96713.88;;;7.50;100.00
74346;BME280;62776;50.518;6.732;2024-02-21T09:18:36;96710.41;;;7.50;100.00
74346;BME280;62776;50.518;6.732;2024-02-21T09:21:23;96710.44;;;7.56;100.00
74346;BME280;62776;50.518;6.732;2024-02-21T09:24:09;96702.72;;;7.63;100.00
74346;BME280;62776;50.518;6.732;2024-02-21T09:26:56;96698.44;;;7.71;100.00
74346;BME280;62776;50.518;6.732;2024-02-21T09:29:43;96688.09;;;7.78;100.00
74346;BME280;62776;50.518;6.732;2024-02-21T09:32:31;96681.22;;;7.80;100.00
74346;BME280;62776;50.518;6.732;2024-02-21T09:35:19;96681.22;;;7.89;100.00
74346;BME280;62776;50.518;6.732;2024-02-21T09:38:05;96670.91;;;7.93;100.00
74346;BME280;62776;50.518;6.732;2024-02-21T09:41:25;96667.41;;;7.87;100.00
74346;BME280;62776;50.518;6.732;2024-02-21T09:44:14;96657.09;;;8.00;100.00
74346;BME280;62776;50.518;6.732;2024-02-21T09:47:06;96641.56;;;8.02;100.00
74346;BME280;62776;50.518;6.732;2024-02-21T09:49:53;96642.41;;;7.84;100.00
74346;BME280;62776;50.518;6.732;2024-02-21T09:52:41;96638.97;;;7.99;100.00
74346;BME280;62776;50.518;6.732;2024-02-21T09:55:29;96620.88;;;7.99;100.00
74346;BME280;62776;50.518;6.732;2024-02-21T09:58:18;96617.38;;;7.97;100.00
74346;BME280;62776;50.518;6.732;2024-02-21T10:01:04;96611.38;;;8.01;100.00
74346;BME280;62776;50.518;6.732;2024-02-21T10:03:55;96611.38;;;8.01;100.00
74346;BME280;62776;50.518;6.732;2024-02-21T10:06:42;96620.84;;;8.00;100.00
74346;BME280;62776;50.518;6.732;2024-02-21T10:09:29;96613.94;;;8.01;100.00
74346;BME280;62776;50.518;6.732;2024-02-21T10:12:15;96615.69;;;8.03;100.00
74346;BME280;62776;50.518;6.732;2024-02-21T10:15:06;96626.03;;;8.05;100.00
74346;BME280;62776;50.518;6.732;2024-02-21T10:18:01;96616.53;;;8.04;100.00
74346;BME280;62776;50.518;6.732;2024-02-21T10:21:03;96626.03;;;8.06;100.00
74346;BME280;62776;50.518;6.732;2024-02-21T10:23:51;96612.22;;;8.09;100.00
74346;BME280;62776;50.518;6.732;2024-02-21T10:26:37;96610.50;;;8.08;100.00
74346;BME280;62776;50.518;6.732;2024-02-21T10:29:24;96619.16;;;8.10;100.00
74346;BME280;62776;50.518;6.732;2024-02-21T10:32:14;96626.03;;;8.08;100.00
74346;BME280;62776;50.518;6.732;2024-02-21T10:35:07;96618.25;;;8.08;100.00
74346;BME280;62776;50.518;6.732;2024-02-21T10:37:59;96620.00;;;8.18;100.00
74346;BME280;62776;50.518;6.732;2024-02-21T10:40:49;96621.72;;;8.20;100.00
74346;BME280;62776;50.518;6.732;2024-02-21T10:43:51;96619.16;;;8.10;100.00
74346;BME280;62776;50.518;6.732;2024-02-21T10:46:43;96624.31;;;8.14;100.00
74346;BME280;62776;50.518;6.732;2024-02-21T10:49:33;96615.66;;;8.21;100.00
74346;BME280;62776;50.518;6.732;2024-02-21T10:52:44;96613.97;;;8.20;100.00
74346;BME280;62776;50.518;6.732;2024-02-21T10:55:47;96612.25;;;8.27;100.00
74346;BME280;62776;50.518;6.732;2024-02-21T10:58:36;96607.06;;;8.39;100.00
74346;BME280;62776;50.518;6.732;2024-02-21T11:01:30;96600.16;;;8.41;100.00
74346;BME280;62776;50.518;6.732;2024-02-21T11:04:21;96576.84;;;8.46;100.00
74346;BME280;62776;50.518;6.732;2024-02-21T11:07:10;96572.53;;;8.43;100.00
74346;BME280;62776;50.518;6.732;2024-02-21T11:10:00;96553.53;;;8.43;100.00
74346;BME280;62776;50.518;6.732;2024-02-21T11:12:47;96550.94;;;8.44;100.00
74346;BME280;62776;50.518;6.732;2024-02-21T11:15:35;96546.66;;;8.40;100.00
74346;BME280;62776;50.518;6.732;2024-02-21T11:18:24;96536.28;;;8.37;100.00
74346;BME280;62776;50.518;6.732;2024-02-21T11:21:13;96535.41;;;8.40;100.00
74346;BME280;62776;50.518;6.732;2024-02-21T11:23:59;96536.28;;;8.40;100.00
74346;BME280;62776;50.518;6.732;2024-02-21T11:26:49;96542.31;;;8.42;100.00
74346;BME280;62776;50.518;6.732;2024-02-21T11:29:49;96523.31;;;8.39;100.00
74346;BME280;62776;50.518;6.732;2024-02-21T11:32:37;96496.53;;;8.47;100.00
74346;BME280;62776;50.518;6.732;2024-02-21T11:35:31;96482.75;;;8.45;100.00
74346;BME280;62776;50.518;6.732;2024-02-21T11:38:24;96474.13;;;8.43;100.00
74346;BME280;62776;50.518;6.732;2024-02-21T11:41:11;96487.94;;;8.45;100.00
74346;BME280;62776;50.518;6.732;2024-02-21T11:43:59;96464.59;;;8.47;100.00
74346;BME280;62776;50.518;6.732;2024-02-21T11:46:45;96454.25;;;8.45;100.00
74346;BME280;62776;50.518;6.732;2024-02-21T11:49:38;96453.41;;;8.42;100.00
74346;BME280;62776;50.518;6.732;2024-02-21T11:52:27;96455.97;;;8.45;100.00
74346;BME280;62776;50.518;6.732;2024-02-21T11:55:14;96444.75;;;8.49;100.00
74346;BME280;62776;50.518;6.732;2024-02-21T11:58:02;96448.19;;;8.49;100.00
74346;BME280;62776;50.518;6.732;2024-02-21T12:00:49;96427.47;;;8.49;100.00
74346;BME280;62776;50.518;6.732;2024-02-21T12:03:36;96419.69;;;8.51;100.00
74346;BME280;62776;50.518;6.732;2024-02-21T12:06:22;96422.28;;;8.49;100.00
74346;BME280;62776;50.518;6.732;2024-02-21T12:09:09;96417.09;;;8.49;100.00
74346;BME280;62776;50.518;6.732;2024-02-21T12:12:03;96425.78;;;8.39;100.00
74346;BME280;62776;50.518;6.732;2024-02-21T12:14:57;96417.16;;;8.40;100.00
74346;BME280;62776;50.518;6.732;2024-02-21T12:17:50;96418.84;;;8.46;100.00
74346;BME280;62776;50.518;6.732;2024-02-21T12:20:37;96416.28;;;8.46;100.00
74346;BME280;62776;50.518;6.732;2024-02-21T12:23:27;96399.84;;;8.44;100.00
74346;BME280;62776;50.518;6.732;2024-02-21T12:26:14;96392.03;;;8.53;100.00
74346;BME280;62776;50.518;6.732;2024-02-21T12:29:04;96372.19;;;8.52;100.00
74346;BME280;62776;50.518;6.732;2024-02-21T12:31:50;96388.53;;;8.60;100.00
74346;BME280;62776;50.518;6.732;2024-02-21T12:34:37;96360.91;;;8.62;100.00
74346;BME280;62776;50.518;6.732;2024-02-21T12:37:25;96354.00;;;8.61;100.00
74346;BME280;62776;50.518;6.732;2024-02-21T12:40:11;96352.22;;;8.69;100.00
74346;BME280;62776;50.518;6.732;2024-02-21T12:43:00;96349.56;;;8.76;100.00
74346;BME280;62776;50.518;6.732;2024-02-21T12:45:50;96337.44;;;8.84;100.00
74346;BME280;62776;50.518;6.732;2024-02-21T12:48:37;96330.50;;;8.88;100.00
74346;BME280;62776;50.518;6.732;2024-02-21T12:51:23;96326.97;;;8.97;100.00
74346;BME280;62776;50.518;6.732;2024-02-21T12:54:09;96322.63;;;9.03;100.00
74346;BME280;62776;50.518;6.732;2024-02-21T12:56:57;96320.00;;;9.05;100.00
74346;BME280;62776;50.518;6.732;2024-02-21T12:59:44;96311.38;;;9.06;100.00
74346;BME280;62776;50.518;6.732;2024-02-21T13:02:31;96292.31;;;9.10;100.00
74346;BME280;62776;50.518;6.732;2024-02-21T13:05:17;96276.69;;;9.16;100.00
74346;BME280;62776;50.518;6.732;2024-02-21T13:08:04;96272.28;;;9.24;100.00
74346;BME280;62776;50.518;6.732;2024-02-21T13:10:51;96259.28;;;9.30;100.00
74346;BME280;62776;50.518;6.732;2024-02-21T13:13:37;96248.88;;;9.33;100.00
74346;BME280;62776;50.518;6.732;2024-02-21T13:16:25;96229.81;;;9.34;100.00
74346;BME280;62776;50.518;6.732;2024-02-21T13:19:12;96243.66;;;9.36;100.00
74346;BME280;62776;50.518;6.732;2024-02-21T13:21:59;96245.31;;;9.40;100.00
74346;BME280;62776;50.518;6.732;2024-02-21T13:24:46;96248.66;;;9.51;100.00
74346;BME280;62776;50.518;6.732;2024-02-21T13:27:35;96239.97;;;9.54;100.00
74346;BME280;62776;50.518;6.732;2024-02-21T13:30:26;96224.41;;;9.55;100.00
74346;BME280;62776;50.518;6.732;2024-02-21T13:33:18;96219.16;;;9.61;100.00
74346;BME280;62776;50.518;6.732;2024-02-21T13:36:05;96210.47;;;9.64;100.00
74346;BME280;62776;50.518;6.732;2024-02-21T13:38:51;96214.75;;;9.65;100.00
74346;BME280;62776;50.518;6.732;2024-02-21T13:41:19;96210.44;;;9.65;100.00
74346;BME280;62776;50.518;6.732;2024-02-21T13:44:09;96205.28;;;9.62;100.00
74346;BME280;62776;50.518;6.732;2024-02-21T13:46:55;96192.28;;;9.65;100.00
74346;BME280;62776;50.518;6.732;2024-02-21T13:49:42;96181.06;;;9.63;100.00
74346;BME280;62776;50.518;6.732;2024-02-21T13:52:31;96166.41;;;9.61;100.00
74346;BME280;62776;50.518;6.732;2024-02-21T13:55:22;96145.66;;;9.61;100.00
74346;BME280;62776;50.518;6.732;2024-02-21T13:58:15;96143.97;;;9.54;100.00
74346;BME280;62776;50.518;6.732;2024-02-21T14:01:16;96122.63;;;9.36;100.00
74346;BME280;62776;50.518;6.732;2024-02-21T14:04:05;96119.94;;;9.41;100.00
74346;BME280;62776;50.518;6.732;2024-02-21T14:06:51;96122.63;;;9.36;100.00
74346;BME280;62776;50.518;6.732;2024-02-21T14:09:39;96129.59;;;9.30;100.00
74346;BME280;62776;50.518;6.732;2024-02-21T14:12:28;96127.91;;;9.26;100.00
74346;BME280;62776;50.518;6.732;2024-02-21T14:15:14;96114.16;;;9.21;100.00
74346;BME280;62776;50.518;6.732;2024-02-21T14:18:02;96121.09;;;9.19;100.00
74346;BME280;62776;50.518;6.732;2024-02-21T14:20:53;96139.28;;;9.16;100.00
74346;BME280;62776;50.518;6.732;2024-02-21T14:23:39;96122.88;;;9.14;100.00
74346;BME280;62776;50.518;6.732;2024-02-21T14:26:27;96114.28;;;9.12;100.00
74346;BME280;62776;50.518;6.732;2024-02-21T14:29:14;96113.50;;;9.04;100.00
74346;BME280;62776;50.518;6.732;2024-02-21T14:32:00;96109.19;;;9.01;100.00
74346;BME280;62776;50.518;6.732;2024-02-21T14:34:46;96119.63;;;8.97;100.00
74346;BME280;62776;50.518;6.732;2024-02-21T14:37:35;96133.47;;;8.94;100.00
74346;BME280;62776;50.518;6.732;2024-02-21T14:40:21;96117.94;;;8.91;100.00
74346;BME280;62776;50.518;6.732;2024-02-21T14:43:08;96136.97;;;8.92;100.00
74346;BME280;62776;50.518;6.732;2024-02-21T14:45:54;96129.13;;;8.96;100.00
74346;BME280;62776;50.518;6.732;2024-02-21T14:48:43;96107.53;;;8.96;100.00